createdAt,value
2022-11-16T00:00:05.831Z,24.94
2022-11-16T00:00:11.712Z,24.88
2022-11-16T00:00:21.712Z,24.90
2022-11-16T00:00:31.729Z,24.91
2022-11-16T00:00:41.728Z,24.92
2022-11-16T00:00:51.748Z,24.91
2022-11-16T00:01:01.777Z,24.92
2022-11-16T00:01:11.789Z,24.92
2022-11-16T00:01:21.767Z,24.92
2022-11-16T00:01:31.788Z,24.92
2022-11-16T00:01:41.889Z,24.93
2022-11-16T00:01:51.985Z,24.93
2022-11-16T00:02:02.015Z,24.93
2022-11-16T00:02:12.106Z,24.93
2022-11-16T00:02:22.103Z,24.94
2022-11-16T00:02:32.229Z,24.93
2022-11-16T00:02:42.363Z,24.93
2022-11-16T00:02:52.364Z,24.93
2022-11-16T00:03:02.376Z,24.93
2022-11-16T00:03:12.377Z,24.93
2022-11-16T00:03:22.394Z,24.93
2022-11-16T00:03:32.394Z,24.94
2022-11-16T00:03:42.514Z,24.94
2022-11-16T00:03:52.542Z,24.94
2022-11-16T00:04:02.542Z,24.95
2022-11-16T00:04:12.546Z,24.95
2022-11-16T00:04:22.812Z,24.95
2022-11-16T00:04:32.814Z,24.95
2022-11-16T00:04:42.929Z,24.95
2022-11-16T00:04:53.187Z,24.95
2022-11-16T00:05:03.190Z,24.95
2022-11-16T00:05:13.200Z,24.95
2022-11-16T00:05:28.100Z,24.94
2022-11-16T00:05:33.216Z,24.88
2022-11-16T00:05:43.218Z,24.90
2022-11-16T00:05:53.233Z,24.93
2022-11-16T00:06:03.231Z,24.93
2022-11-16T00:06:13.232Z,24.92
2022-11-16T00:06:23.366Z,24.92
2022-11-16T00:06:33.381Z,24.93
2022-11-16T00:06:43.376Z,24.93
2022-11-16T00:06:53.444Z,24.93
2022-11-16T00:07:03.563Z,24.94
2022-11-16T00:07:13.653Z,24.93
2022-11-16T00:07:23.726Z,24.94
2022-11-16T00:07:33.793Z,24.94
2022-11-16T00:07:43.794Z,24.94
2022-11-16T00:07:53.798Z,24.95
2022-11-16T00:08:03.935Z,24.94
2022-11-16T00:08:13.985Z,24.95
2022-11-16T00:08:23.990Z,24.94
2022-11-16T00:08:34.439Z,24.95
2022-11-16T00:08:44.209Z,24.94
2022-11-16T00:08:54.221Z,24.95
2022-11-16T00:09:04.232Z,24.95
2022-11-16T00:09:14.245Z,24.95
2022-11-16T00:09:24.268Z,24.95
2022-11-16T00:09:34.267Z,24.95
2022-11-16T00:09:44.280Z,24.95
2022-11-16T00:09:54.284Z,24.95
2022-11-16T00:10:04.301Z,24.95
2022-11-16T00:10:14.308Z,24.95
2022-11-16T00:10:24.307Z,24.96
2022-11-16T00:10:34.317Z,24.95
2022-11-16T00:10:44.317Z,24.96
2022-11-16T00:10:54.328Z,24.96
2022-11-16T00:11:04.336Z,24.95
2022-11-16T00:11:14.343Z,24.96
2022-11-16T00:11:24.351Z,24.96
2022-11-16T00:11:34.356Z,24.97
2022-11-16T00:11:44.366Z,24.95
2022-11-16T00:11:54.366Z,24.95
2022-11-16T00:12:04.373Z,24.96
2022-11-16T00:12:14.380Z,24.96
2022-11-16T00:12:24.383Z,24.95
2022-11-16T00:12:34.383Z,24.96
2022-11-16T00:12:44.764Z,24.95
2022-11-16T00:12:54.766Z,24.96
2022-11-16T00:13:04.767Z,24.96
2022-11-16T00:13:14.769Z,24.96
2022-11-16T00:13:24.784Z,24.95
2022-11-16T00:13:34.782Z,24.96
2022-11-16T00:13:44.789Z,24.96
2022-11-16T00:13:54.796Z,24.96
2022-11-16T00:14:04.797Z,24.96
2022-11-16T00:14:14.802Z,24.96
2022-11-16T00:14:24.812Z,24.96
2022-11-16T00:14:34.822Z,24.96
2022-11-16T00:14:44.825Z,24.96
2022-11-16T00:14:54.828Z,24.96
2022-11-16T00:15:04.835Z,24.96
2022-11-16T00:15:14.838Z,24.96
2022-11-16T00:15:24.848Z,24.97
2022-11-16T00:15:34.862Z,24.96
2022-11-16T00:15:44.871Z,24.96
2022-11-16T00:15:54.878Z,24.96
2022-11-16T00:16:04.997Z,24.96
2022-11-16T00:16:15.033Z,24.97
2022-11-16T00:16:25.013Z,24.97
2022-11-16T00:16:35.028Z,24.97
2022-11-16T00:16:45.286Z,24.98
2022-11-16T00:16:55.291Z,24.96
2022-11-16T00:17:05.410Z,24.96
2022-11-16T00:17:15.683Z,24.97
2022-11-16T00:17:25.683Z,24.97
2022-11-16T00:17:35.689Z,24.97
2022-11-16T00:17:45.692Z,24.97
2022-11-16T00:17:55.701Z,24.96
2022-11-16T00:18:05.717Z,24.97
2022-11-16T00:18:15.720Z,24.98
2022-11-16T00:18:25.731Z,24.97
2022-11-16T00:18:35.964Z,24.98
2022-11-16T00:18:45.827Z,24.98
2022-11-16T00:18:55.829Z,24.98
2022-11-16T00:19:05.838Z,24.97
2022-11-16T00:19:15.843Z,24.98
2022-11-16T00:19:25.862Z,24.97
2022-11-16T00:19:35.867Z,24.97
2022-11-16T00:19:45.871Z,24.98
2022-11-16T00:19:55.884Z,24.98
2022-11-16T00:20:05.901Z,24.97
2022-11-16T00:20:15.924Z,24.98
2022-11-16T00:20:25.930Z,24.97
2022-11-16T00:20:35.930Z,24.98
2022-11-16T00:20:45.937Z,24.98
2022-11-16T00:20:55.949Z,24.98
2022-11-16T00:21:05.951Z,24.97
2022-11-16T00:21:15.962Z,24.97
2022-11-16T00:21:25.983Z,24.97
2022-11-16T00:21:35.985Z,24.96
2022-11-16T00:21:45.995Z,24.97
2022-11-16T00:21:56.012Z,24.97
2022-11-16T00:22:06.025Z,24.97
2022-11-16T00:22:16.025Z,24.97
2022-11-16T00:22:26.051Z,24.98
2022-11-16T00:22:36.046Z,24.98
2022-11-16T00:22:46.057Z,24.98
2022-11-16T00:22:56.070Z,24.98
2022-11-16T00:23:06.078Z,24.97
2022-11-16T00:23:16.078Z,24.98
2022-11-16T00:23:26.198Z,24.98
2022-11-16T00:23:36.466Z,24.98
2022-11-16T00:23:46.606Z,24.99
2022-11-16T00:23:56.593Z,24.98
2022-11-16T00:24:06.849Z,24.99
2022-11-16T00:24:16.858Z,24.99
2022-11-16T00:24:26.884Z,24.99
2022-11-16T00:24:36.900Z,24.97
2022-11-16T00:24:46.912Z,24.98
2022-11-16T00:24:56.925Z,24.99
2022-11-16T00:25:06.939Z,24.99
2022-11-16T00:25:16.941Z,24.98
2022-11-16T00:25:26.953Z,24.99
2022-11-16T00:25:36.977Z,24.99
2022-11-16T00:25:46.961Z,24.99
2022-11-16T00:25:56.961Z,24.99
2022-11-16T00:26:07.098Z,24.99
2022-11-16T00:26:17.101Z,24.99
2022-11-16T00:26:27.123Z,24.99
2022-11-16T00:26:37.125Z,24.99
2022-11-16T00:26:47.134Z,24.99
2022-11-16T00:26:57.399Z,25.00
2022-11-16T00:27:07.401Z,24.99
2022-11-16T00:27:17.406Z,24.99
2022-11-16T00:27:27.406Z,24.99
2022-11-16T00:27:37.415Z,24.99
2022-11-16T00:27:47.533Z,24.99
2022-11-16T00:27:57.534Z,24.99
2022-11-16T00:28:07.540Z,24.99
2022-11-16T00:28:17.555Z,25.00
2022-11-16T00:28:27.561Z,25.00
2022-11-16T00:28:37.843Z,25.00
2022-11-16T00:28:47.841Z,25.00
2022-11-16T00:28:57.838Z,25.00
2022-11-16T00:29:07.842Z,25.00
2022-11-16T00:29:17.849Z,25.00
2022-11-16T00:29:27.853Z,25.00
2022-11-16T00:29:37.857Z,25.00
2022-11-16T00:29:47.884Z,25.00
2022-11-16T00:29:57.887Z,25.00
2022-11-16T00:30:07.897Z,24.99
2022-11-16T00:30:17.910Z,25.00
2022-11-16T00:30:27.927Z,25.00
2022-11-16T00:30:37.930Z,25.00
2022-11-16T00:30:47.935Z,25.00
2022-11-16T00:30:57.954Z,25.00
2022-11-16T00:31:07.954Z,24.99
2022-11-16T00:31:17.996Z,24.99
2022-11-16T00:31:27.978Z,24.99
2022-11-16T00:31:38.012Z,25.00
2022-11-16T00:31:48.001Z,25.00
2022-11-16T00:31:58.019Z,25.00
2022-11-16T00:32:08.021Z,25.00
2022-11-16T00:32:18.022Z,25.00
2022-11-16T00:32:28.020Z,25.00
2022-11-16T00:32:38.398Z,25.00
2022-11-16T00:32:48.398Z,25.00
2022-11-16T00:32:58.514Z,25.00
2022-11-16T00:33:08.773Z,25.01
2022-11-16T00:33:18.895Z,25.01
2022-11-16T00:33:28.913Z,25.01
2022-11-16T00:33:39.164Z,25.01
2022-11-16T00:33:49.282Z,25.01
2022-11-16T00:33:59.282Z,25.01
2022-11-16T00:34:09.542Z,25.01
2022-11-16T00:34:19.558Z,25.01
2022-11-16T00:34:29.564Z,25.01
2022-11-16T00:34:39.583Z,25.00
2022-11-16T00:34:49.580Z,25.00
2022-11-16T00:34:59.592Z,25.00
2022-11-16T00:35:09.591Z,25.01
2022-11-16T00:35:19.716Z,25.00
2022-11-16T00:35:29.716Z,25.01
2022-11-16T00:35:39.837Z,25.01
2022-11-16T00:35:49.980Z,25.01
2022-11-16T00:36:00.024Z,25.00
2022-11-16T00:36:10.021Z,25.02
2022-11-16T00:36:20.405Z,25.01
2022-11-16T00:36:30.416Z,25.01
2022-11-16T00:36:40.428Z,25.01
2022-11-16T00:36:50.435Z,25.01
2022-11-16T00:37:00.445Z,25.01
2022-11-16T00:37:10.455Z,25.01
2022-11-16T00:37:20.448Z,25.02
2022-11-16T00:37:30.456Z,25.02
2022-11-16T00:37:40.584Z,25.02
2022-11-16T00:37:50.596Z,25.01
2022-11-16T00:38:00.845Z,25.02
2022-11-16T00:38:10.859Z,25.01
2022-11-16T00:38:20.878Z,25.02
2022-11-16T00:38:31.342Z,25.02
2022-11-16T00:38:41.201Z,25.00
2022-11-16T00:38:51.197Z,25.01
2022-11-16T00:39:01.207Z,25.02
2022-11-16T00:39:11.214Z,25.02
2022-11-16T00:39:21.208Z,25.02
2022-11-16T00:39:31.266Z,25.03
2022-11-16T00:39:41.276Z,25.03
2022-11-16T00:39:51.286Z,25.03
2022-11-16T00:40:01.290Z,25.03
2022-11-16T00:40:11.358Z,25.02
2022-11-16T00:40:21.746Z,25.02
2022-11-16T00:40:31.755Z,25.02
2022-11-16T00:40:41.768Z,25.03
2022-11-16T00:40:51.779Z,25.03
2022-11-16T00:41:01.793Z,25.04
2022-11-16T00:41:11.798Z,25.03
2022-11-16T00:41:21.807Z,25.02
2022-11-16T00:41:31.818Z,25.04
2022-11-16T00:41:41.957Z,25.03
2022-11-16T00:41:51.969Z,25.03
2022-11-16T00:42:02.220Z,25.03
2022-11-16T00:42:12.220Z,25.03
2022-11-16T00:42:22.232Z,25.03
2022-11-16T00:42:32.247Z,25.03
2022-11-16T00:42:42.247Z,25.04
2022-11-16T00:42:52.256Z,25.03
2022-11-16T00:43:02.274Z,25.04
2022-11-16T00:43:12.365Z,25.04
2022-11-16T00:43:22.358Z,25.04
2022-11-16T00:43:32.364Z,25.04
2022-11-16T00:43:42.363Z,25.05
2022-11-16T00:43:52.388Z,25.04
2022-11-16T00:44:02.378Z,25.04
2022-11-16T00:44:12.385Z,25.05
2022-11-16T00:44:22.403Z,25.04
2022-11-16T00:44:32.392Z,25.05
2022-11-16T00:44:42.406Z,25.05
2022-11-16T00:44:52.412Z,25.05
2022-11-16T00:45:02.422Z,25.05
2022-11-16T00:45:12.433Z,25.05
2022-11-16T00:45:22.425Z,25.05
2022-11-16T00:45:32.430Z,25.06
2022-11-16T00:45:42.595Z,25.06
2022-11-16T00:45:52.587Z,25.05
2022-11-16T00:46:02.847Z,25.06
2022-11-16T00:46:12.860Z,25.06
2022-11-16T00:46:22.890Z,25.06
2022-11-16T00:46:32.881Z,25.06
2022-11-16T00:46:42.893Z,25.06
2022-11-16T00:46:52.891Z,25.06
2022-11-16T00:47:02.903Z,25.06
2022-11-16T00:47:12.896Z,25.06
2022-11-16T00:47:23.026Z,25.06
2022-11-16T00:47:33.036Z,25.06
2022-11-16T00:47:43.319Z,25.06
2022-11-16T00:47:59.185Z,25.06
2022-11-16T00:48:03.366Z,25.02
2022-11-16T00:48:13.363Z,25.03
2022-11-16T00:48:23.358Z,25.04
2022-11-16T00:48:33.702Z,25.04
2022-11-16T00:48:43.431Z,25.04
2022-11-16T00:48:53.562Z,25.05
2022-11-16T00:49:03.583Z,25.05
2022-11-16T00:49:13.581Z,25.06
2022-11-16T00:49:23.959Z,25.06
2022-11-16T00:49:33.957Z,25.06
2022-11-16T00:49:43.967Z,25.06
2022-11-16T00:49:53.976Z,25.06
2022-11-16T00:50:04.003Z,25.06
2022-11-16T00:50:14.014Z,25.07
2022-11-16T00:50:24.003Z,25.06
2022-11-16T00:50:34.019Z,25.07
2022-11-16T00:50:44.029Z,25.07
2022-11-16T00:50:54.029Z,25.07
2022-11-16T00:51:04.407Z,25.07
2022-11-16T00:51:14.403Z,25.07
2022-11-16T00:51:24.524Z,25.07
2022-11-16T00:51:34.777Z,25.07
2022-11-16T00:51:44.788Z,25.07
2022-11-16T00:51:54.797Z,25.07
2022-11-16T00:52:04.807Z,25.07
2022-11-16T00:52:14.820Z,25.07
2022-11-16T00:52:24.822Z,25.06
2022-11-16T00:52:34.821Z,25.07
2022-11-16T00:52:44.945Z,25.07
2022-11-16T00:52:54.953Z,25.07
2022-11-16T00:53:04.964Z,25.07
2022-11-16T00:53:15.236Z,25.07
2022-11-16T00:53:25.358Z,25.07
2022-11-16T00:53:35.355Z,25.08
2022-11-16T00:53:45.607Z,25.08
2022-11-16T00:53:55.627Z,25.07
2022-11-16T00:54:05.626Z,25.08
2022-11-16T00:54:15.645Z,25.08
2022-11-16T00:54:25.652Z,25.07
2022-11-16T00:54:35.655Z,25.07
2022-11-16T00:54:45.786Z,25.07
2022-11-16T00:54:55.788Z,25.07
2022-11-16T00:55:05.909Z,25.07
2022-11-16T00:55:15.912Z,25.07
2022-11-16T00:55:26.045Z,25.06
2022-11-16T00:55:36.054Z,25.07
2022-11-16T00:55:46.050Z,25.07
2022-11-16T00:55:56.054Z,25.06
2022-11-16T00:56:06.191Z,25.07
2022-11-16T00:56:16.198Z,25.07
2022-11-16T00:56:26.205Z,25.07
2022-11-16T00:56:36.212Z,25.08
2022-11-16T00:56:46.222Z,25.07
2022-11-16T00:56:56.235Z,25.07
2022-11-16T00:57:06.494Z,25.08
2022-11-16T00:57:16.502Z,25.08
2022-11-16T00:57:26.618Z,25.09
2022-11-16T00:57:36.878Z,25.09
2022-11-16T00:57:46.996Z,25.09
2022-11-16T00:57:56.997Z,25.08
2022-11-16T00:58:07.258Z,25.09
2022-11-16T00:58:17.268Z,25.09
2022-11-16T00:58:27.384Z,25.09
2022-11-16T00:58:37.655Z,25.09
2022-11-16T00:58:47.773Z,25.10
2022-11-16T00:58:57.783Z,25.10
2022-11-16T00:59:08.047Z,25.10
2022-11-16T00:59:18.174Z,25.11
2022-11-16T00:59:28.168Z,25.10
2022-11-16T00:59:38.431Z,25.11
2022-11-16T00:59:48.549Z,25.11
2022-11-16T00:59:58.550Z,25.11
2022-11-16T01:00:08.811Z,25.12
2022-11-16T01:00:18.816Z,25.11
2022-11-16T01:00:28.951Z,25.12
2022-11-16T01:00:39.209Z,25.12
2022-11-16T01:00:49.525Z,25.12
2022-11-16T01:00:59.450Z,25.12
2022-11-16T01:01:09.789Z,25.12
2022-11-16T01:01:19.929Z,25.12
2022-11-16T01:01:29.995Z,25.12
2022-11-16T01:01:40.148Z,25.12
2022-11-16T01:01:50.229Z,25.12
2022-11-16T01:02:00.237Z,25.13
2022-11-16T01:02:10.245Z,25.13
2022-11-16T01:02:20.255Z,25.13
2022-11-16T01:02:30.376Z,25.14
2022-11-16T01:02:40.376Z,25.13
2022-11-16T01:02:50.388Z,25.13
2022-11-16T01:03:00.404Z,25.13
2022-11-16T01:03:10.406Z,25.13
2022-11-16T01:03:20.664Z,25.14
2022-11-16T01:03:30.783Z,25.13
2022-11-16T01:03:40.785Z,25.14
2022-11-16T01:03:51.048Z,25.14
2022-11-16T01:04:01.060Z,25.14
2022-11-16T01:04:11.066Z,25.14
2022-11-16T01:04:21.157Z,25.13
2022-11-16T01:04:31.167Z,25.13
2022-11-16T01:04:41.167Z,25.14
2022-11-16T01:04:51.173Z,25.13
2022-11-16T01:05:01.189Z,25.13
2022-11-16T01:05:11.226Z,25.14
2022-11-16T01:05:21.244Z,25.13
2022-11-16T01:05:31.246Z,25.14
2022-11-16T01:05:41.256Z,25.14
2022-11-16T01:05:51.379Z,25.14
2022-11-16T01:06:01.383Z,25.14
2022-11-16T01:06:11.390Z,25.14
2022-11-16T01:06:21.497Z,25.14
2022-11-16T01:06:31.619Z,25.15
2022-11-16T01:06:41.627Z,25.15
2022-11-16T01:06:51.698Z,25.14
2022-11-16T01:07:01.783Z,25.14
2022-11-16T01:07:11.919Z,25.14
2022-11-16T01:07:21.865Z,25.14
2022-11-16T01:07:32.001Z,25.14
2022-11-16T01:07:42.008Z,25.15
2022-11-16T01:07:52.014Z,25.15
2022-11-16T01:08:02.013Z,25.15
2022-11-16T01:08:12.157Z,25.16
2022-11-16T01:08:22.419Z,25.15
2022-11-16T01:08:33.006Z,25.15
2022-11-16T01:08:42.642Z,25.14
2022-11-16T01:08:52.906Z,25.14
2022-11-16T01:09:02.920Z,25.15
2022-11-16T01:09:12.907Z,25.15
2022-11-16T01:09:22.914Z,25.15
2022-11-16T01:09:32.919Z,25.16
2022-11-16T01:09:42.922Z,25.15
2022-11-16T01:09:52.954Z,25.15
2022-11-16T01:10:02.980Z,25.15
2022-11-16T01:10:12.985Z,25.15
2022-11-16T01:10:22.987Z,25.15
2022-11-16T01:10:33.364Z,25.14
2022-11-16T01:10:43.371Z,25.15
2022-11-16T01:10:53.370Z,25.15
2022-11-16T01:11:03.424Z,25.15
2022-11-16T01:11:13.450Z,25.15
2022-11-16T01:11:23.570Z,25.15
2022-11-16T01:11:33.573Z,25.17
2022-11-16T01:11:43.589Z,25.15
2022-11-16T01:11:53.590Z,25.15
2022-11-16T01:12:03.714Z,25.16
2022-11-16T01:12:13.997Z,25.15
2022-11-16T01:12:24.003Z,25.15
2022-11-16T01:12:34.005Z,25.16
2022-11-16T01:12:44.383Z,25.15
2022-11-16T01:12:54.396Z,25.16
2022-11-16T01:13:04.419Z,25.17
2022-11-16T01:13:14.535Z,25.16
2022-11-16T01:13:24.680Z,25.15
2022-11-16T01:13:34.681Z,25.16
2022-11-16T01:13:44.699Z,25.16
2022-11-16T01:13:54.696Z,25.16
2022-11-16T01:14:04.825Z,25.16
2022-11-16T01:14:14.834Z,25.17
2022-11-16T01:14:24.849Z,25.17
2022-11-16T01:14:34.864Z,25.17
2022-11-16T01:14:44.868Z,25.18
2022-11-16T01:14:54.876Z,25.19
2022-11-16T01:15:05.148Z,25.20
2022-11-16T01:15:15.149Z,25.20
2022-11-16T01:15:25.269Z,25.20
2022-11-16T01:15:35.528Z,25.19
2022-11-16T01:15:45.648Z,25.19
2022-11-16T01:15:55.648Z,25.19
2022-11-16T01:16:05.898Z,25.19
2022-11-16T01:16:15.912Z,25.19
2022-11-16T01:16:25.903Z,25.18
2022-11-16T01:16:35.941Z,25.19
2022-11-16T01:16:45.930Z,25.19
2022-11-16T01:16:55.955Z,25.19
2022-11-16T01:17:06.073Z,25.19
2022-11-16T01:17:16.079Z,25.19
2022-11-16T01:17:26.196Z,25.20
2022-11-16T01:17:36.197Z,25.20
2022-11-16T01:17:46.330Z,25.20
2022-11-16T01:17:56.333Z,25.19
2022-11-16T01:18:06.337Z,25.19
2022-11-16T01:18:16.345Z,25.19
2022-11-16T01:18:26.345Z,25.18
2022-11-16T01:18:36.399Z,25.19
2022-11-16T01:18:46.387Z,25.18
2022-11-16T01:18:56.390Z,25.17
2022-11-16T01:19:06.405Z,25.18
2022-11-16T01:19:16.424Z,25.17
2022-11-16T01:19:26.801Z,25.17
2022-11-16T01:19:36.802Z,25.17
2022-11-16T01:19:46.924Z,25.17
2022-11-16T01:19:57.184Z,25.17
2022-11-16T01:20:07.190Z,25.17
2022-11-16T01:20:17.191Z,25.17
2022-11-16T01:20:27.570Z,25.16
2022-11-16T01:20:37.570Z,25.15
2022-11-16T01:20:47.694Z,25.16
2022-11-16T01:20:57.952Z,25.16
2022-11-16T01:21:08.085Z,25.16
2022-11-16T01:21:18.093Z,25.15
2022-11-16T01:21:28.346Z,25.16
2022-11-16T01:21:38.348Z,25.15
2022-11-16T01:21:48.466Z,25.16
2022-11-16T01:21:58.734Z,25.15
2022-11-16T01:22:08.745Z,25.16
2022-11-16T01:22:18.755Z,25.15
2022-11-16T01:22:28.752Z,25.15
2022-11-16T01:22:38.757Z,25.15
2022-11-16T01:22:48.758Z,25.14
2022-11-16T01:22:58.760Z,25.13
2022-11-16T01:23:08.781Z,25.14
2022-11-16T01:23:18.789Z,25.14
2022-11-16T01:23:28.793Z,25.14
2022-11-16T01:23:38.792Z,25.14
2022-11-16T01:23:48.917Z,25.13
2022-11-16T01:23:58.916Z,25.13
2022-11-16T01:24:08.951Z,25.13
2022-11-16T01:24:18.994Z,25.13
2022-11-16T01:24:28.987Z,25.13
2022-11-16T01:24:38.997Z,25.13
2022-11-16T01:24:49.254Z,25.13
2022-11-16T01:24:59.253Z,25.13
2022-11-16T01:25:09.387Z,25.13
2022-11-16T01:25:19.663Z,25.13
2022-11-16T01:25:29.666Z,25.12
2022-11-16T01:25:39.666Z,25.12
2022-11-16T01:25:50.052Z,25.12
2022-11-16T01:26:00.044Z,25.11
2022-11-16T01:26:10.056Z,25.11
2022-11-16T01:26:20.062Z,25.11
2022-11-16T01:26:30.069Z,25.10
2022-11-16T01:26:40.067Z,25.11
2022-11-16T01:26:50.077Z,25.10
2022-11-16T01:27:00.091Z,25.10
2022-11-16T01:27:10.204Z,25.11
2022-11-16T01:27:20.206Z,25.10
2022-11-16T01:27:30.467Z,25.10
2022-11-16T01:27:40.477Z,25.11
2022-11-16T01:27:50.473Z,25.10
2022-11-16T01:28:00.468Z,25.10
2022-11-16T01:28:10.477Z,25.09
2022-11-16T01:28:20.480Z,25.09
2022-11-16T01:28:30.786Z,25.10
2022-11-16T01:28:40.564Z,25.08
2022-11-16T01:28:50.682Z,25.08
2022-11-16T01:29:00.682Z,25.08
2022-11-16T01:29:10.932Z,25.08
2022-11-16T01:29:20.943Z,25.07
2022-11-16T01:29:30.941Z,25.07
2022-11-16T01:29:40.940Z,25.06
2022-11-16T01:29:51.067Z,25.06
2022-11-16T01:30:01.094Z,25.06
2022-11-16T01:30:11.089Z,25.05
2022-11-16T01:30:21.103Z,25.05
2022-11-16T01:30:31.129Z,25.05
2022-11-16T01:30:41.115Z,25.05
2022-11-16T01:30:51.368Z,25.05
2022-11-16T01:31:01.388Z,25.04
2022-11-16T01:31:11.391Z,25.04
2022-11-16T01:31:21.402Z,25.04
2022-11-16T01:31:31.413Z,25.03
2022-11-16T01:31:41.445Z,25.04
2022-11-16T01:31:51.428Z,25.04
2022-11-16T01:32:01.439Z,25.02
2022-11-16T01:32:11.452Z,25.03
2022-11-16T01:32:21.460Z,25.03
2022-11-16T01:32:31.843Z,25.02
2022-11-16T01:32:41.848Z,25.02
2022-11-16T01:32:51.849Z,25.01
2022-11-16T01:33:01.861Z,25.01
2022-11-16T01:33:11.892Z,25.01
2022-11-16T01:33:21.883Z,25.00
2022-11-16T01:33:31.890Z,25.01
2022-11-16T01:33:41.907Z,25.01
2022-11-16T01:33:51.908Z,25.01
2022-11-16T01:34:01.919Z,25.00
2022-11-16T01:34:12.296Z,25.00
2022-11-16T01:34:22.296Z,25.00
2022-11-16T01:34:32.415Z,25.00
2022-11-16T01:34:42.676Z,25.00
2022-11-16T01:34:52.808Z,24.99
2022-11-16T01:35:02.818Z,24.99
2022-11-16T01:35:13.068Z,24.99
2022-11-16T01:35:23.072Z,25.00
2022-11-16T01:35:33.198Z,24.99
2022-11-16T01:35:43.457Z,24.99
2022-11-16T01:35:53.578Z,25.00
2022-11-16T01:36:03.624Z,24.99
2022-11-16T01:36:13.889Z,24.99
2022-11-16T01:36:23.897Z,24.99
2022-11-16T01:36:33.890Z,24.99
2022-11-16T01:36:43.900Z,24.98
2022-11-16T01:36:53.899Z,24.99
2022-11-16T01:37:03.897Z,24.97
2022-11-16T01:37:13.898Z,24.98
2022-11-16T01:37:23.905Z,24.98
2022-11-16T01:37:34.025Z,24.97
2022-11-16T01:37:44.024Z,24.97
2022-11-16T01:37:54.291Z,24.96
2022-11-16T01:38:04.298Z,24.96
2022-11-16T01:38:14.309Z,24.96
2022-11-16T01:38:29.402Z,24.96
2022-11-16T01:38:34.679Z,24.89
2022-11-16T01:38:44.438Z,24.91
2022-11-16T01:38:54.447Z,24.92
2022-11-16T01:39:04.461Z,24.92
2022-11-16T01:39:14.453Z,24.92
2022-11-16T01:39:24.456Z,24.92
2022-11-16T01:39:34.456Z,24.91
2022-11-16T01:39:44.458Z,24.92
2022-11-16T01:39:54.457Z,24.92
2022-11-16T01:40:04.460Z,24.92
2022-11-16T01:40:14.578Z,24.92
2022-11-16T01:40:24.595Z,24.92
2022-11-16T01:40:34.600Z,24.92
2022-11-16T01:40:44.594Z,24.91
2022-11-16T01:40:54.711Z,24.91
2022-11-16T01:41:04.849Z,24.92
2022-11-16T01:41:14.850Z,24.90
2022-11-16T01:41:24.859Z,24.90
2022-11-16T01:41:34.876Z,24.90
2022-11-16T01:41:44.892Z,24.89
2022-11-16T01:41:54.890Z,24.89
2022-11-16T01:42:04.906Z,24.89
2022-11-16T01:42:14.913Z,24.89
2022-11-16T01:42:24.923Z,24.89
2022-11-16T01:42:34.933Z,24.89
2022-11-16T01:42:44.939Z,24.88
2022-11-16T01:42:54.954Z,24.88
2022-11-16T01:43:04.962Z,24.88
2022-11-16T01:43:14.974Z,24.88
2022-11-16T01:43:24.978Z,24.87
2022-11-16T01:43:35.097Z,24.87
2022-11-16T01:43:45.095Z,24.87
2022-11-16T01:43:55.350Z,24.87
2022-11-16T01:44:05.358Z,24.87
2022-11-16T01:44:15.372Z,24.86
2022-11-16T01:44:25.382Z,24.86
2022-11-16T01:44:35.388Z,24.86
2022-11-16T01:44:45.398Z,24.86
2022-11-16T01:44:55.391Z,24.85
2022-11-16T01:45:05.396Z,24.85
2022-11-16T01:45:15.400Z,24.85
2022-11-16T01:45:25.401Z,24.85
2022-11-16T01:45:35.417Z,24.85
2022-11-16T01:45:45.422Z,24.85
2022-11-16T01:45:55.436Z,24.85
2022-11-16T01:46:05.443Z,24.85
2022-11-16T01:46:15.450Z,24.84
2022-11-16T01:46:25.461Z,24.84
2022-11-16T01:46:35.480Z,24.84
2022-11-16T01:46:45.502Z,24.84
2022-11-16T01:46:55.603Z,24.84
2022-11-16T01:47:05.605Z,24.83
2022-11-16T01:47:15.616Z,24.83
2022-11-16T01:47:25.635Z,24.83
2022-11-16T01:47:35.770Z,24.82
2022-11-16T01:47:45.781Z,24.82
2022-11-16T01:47:56.004Z,24.82
2022-11-16T01:48:06.074Z,24.82
2022-11-16T01:48:16.141Z,24.82
2022-11-16T01:48:26.354Z,24.81
2022-11-16T01:48:36.802Z,24.82
2022-11-16T01:48:46.474Z,24.80
2022-11-16T01:48:56.880Z,24.81
2022-11-16T01:49:06.884Z,24.81
2022-11-16T01:49:16.999Z,24.80
2022-11-16T01:49:27.137Z,24.80
2022-11-16T01:49:37.137Z,24.80
2022-11-16T01:49:47.138Z,24.79
2022-11-16T01:49:57.516Z,24.79
2022-11-16T01:50:07.521Z,24.79
2022-11-16T01:50:17.540Z,24.79
2022-11-16T01:50:27.543Z,24.78
2022-11-16T01:50:37.555Z,24.78
2022-11-16T01:50:47.561Z,24.78
2022-11-16T01:50:57.573Z,24.78
2022-11-16T01:51:07.580Z,24.78
2022-11-16T01:51:17.593Z,24.78
2022-11-16T01:51:27.601Z,24.77
2022-11-16T01:51:37.979Z,24.77
2022-11-16T01:51:47.978Z,24.77
2022-11-16T01:51:57.993Z,24.76
2022-11-16T01:52:08.001Z,24.76
2022-11-16T01:52:18.011Z,24.76
2022-11-16T01:52:28.010Z,24.76
2022-11-16T01:52:38.012Z,24.76
2022-11-16T01:52:48.017Z,24.76
2022-11-16T01:52:58.022Z,24.75
2022-11-16T01:53:08.021Z,24.75
2022-11-16T01:53:18.020Z,24.75
2022-11-16T01:53:28.030Z,24.75
2022-11-16T01:53:38.034Z,24.75
2022-11-16T01:53:48.043Z,24.74
2022-11-16T01:53:58.058Z,24.74
2022-11-16T01:54:08.061Z,24.74
2022-11-16T01:54:18.104Z,24.73
2022-11-16T01:54:28.111Z,24.74
2022-11-16T01:54:38.116Z,24.74
2022-11-16T01:54:48.124Z,24.73
2022-11-16T01:54:58.122Z,24.73
2022-11-16T01:55:08.131Z,24.72
2022-11-16T01:55:18.133Z,24.72
2022-11-16T01:55:28.141Z,24.72
2022-11-16T01:55:38.155Z,24.72
2022-11-16T01:55:48.165Z,24.72
2022-11-16T01:55:58.172Z,24.72
2022-11-16T01:56:08.165Z,24.71
2022-11-16T01:56:18.171Z,24.71
2022-11-16T01:56:28.179Z,24.70
2022-11-16T01:56:38.180Z,24.71
2022-11-16T01:56:48.182Z,24.71
2022-11-16T01:56:58.197Z,24.71
2022-11-16T01:57:08.204Z,24.70
2022-11-16T01:57:18.215Z,24.71
2022-11-16T01:57:28.234Z,24.69
2022-11-16T01:57:38.233Z,24.70
2022-11-16T01:57:48.250Z,24.69
2022-11-16T01:57:58.257Z,24.70
2022-11-16T01:58:08.276Z,24.68
2022-11-16T01:58:18.277Z,24.69
2022-11-16T01:58:28.287Z,24.68
2022-11-16T01:58:38.293Z,24.68
2022-11-16T01:58:48.309Z,24.68
2022-11-16T01:58:58.352Z,24.67
2022-11-16T01:59:08.350Z,24.68
2022-11-16T01:59:18.354Z,24.68
2022-11-16T01:59:28.354Z,24.67
2022-11-16T01:59:38.355Z,24.68
2022-11-16T01:59:48.370Z,24.67
2022-11-16T01:59:58.370Z,24.67
2022-11-16T02:00:08.393Z,24.66
2022-11-16T02:00:18.394Z,24.67
2022-11-16T02:00:28.425Z,24.66
2022-11-16T02:00:38.427Z,24.66
2022-11-16T02:00:48.572Z,24.66
2022-11-16T02:00:58.527Z,24.66
2022-11-16T02:01:08.612Z,24.65
2022-11-16T02:01:18.762Z,24.65
2022-11-16T02:01:29.028Z,24.65
2022-11-16T02:01:39.166Z,24.65
2022-11-16T02:01:49.198Z,24.65
2022-11-16T02:01:59.304Z,24.65
2022-11-16T02:02:09.308Z,24.64
2022-11-16T02:02:19.320Z,24.64
2022-11-16T02:02:29.328Z,24.63
2022-11-16T02:02:39.344Z,24.64
2022-11-16T02:02:49.362Z,24.63
2022-11-16T02:02:59.360Z,24.63
2022-11-16T02:03:09.370Z,24.63
2022-11-16T02:03:19.380Z,24.63
2022-11-16T02:03:29.380Z,24.63
2022-11-16T02:03:39.394Z,24.62
2022-11-16T02:03:49.414Z,24.62
2022-11-16T02:03:59.415Z,24.62
2022-11-16T02:04:09.432Z,24.63
2022-11-16T02:04:19.442Z,24.62
2022-11-16T02:04:29.445Z,24.62
2022-11-16T02:04:39.459Z,24.61
2022-11-16T02:04:49.460Z,24.61
2022-11-16T02:04:59.472Z,24.61
2022-11-16T02:05:09.467Z,24.60
2022-11-16T02:05:19.487Z,24.60
2022-11-16T02:05:29.485Z,24.61
2022-11-16T02:05:39.487Z,24.60
2022-11-16T02:05:49.606Z,24.60
2022-11-16T02:05:59.873Z,24.59
2022-11-16T02:06:09.882Z,24.59
2022-11-16T02:06:19.897Z,24.59
2022-11-16T02:06:29.905Z,24.60
2022-11-16T02:06:39.913Z,24.59
2022-11-16T02:06:50.116Z,24.59
2022-11-16T02:07:00.240Z,24.59
2022-11-16T02:07:10.116Z,24.59
2022-11-16T02:07:20.208Z,24.59
2022-11-16T02:07:30.310Z,24.58
2022-11-16T02:07:40.438Z,24.59
2022-11-16T02:07:50.459Z,24.59
2022-11-16T02:08:00.458Z,24.58
2022-11-16T02:08:10.472Z,24.58
2022-11-16T02:08:20.484Z,24.58
2022-11-16T02:08:30.834Z,24.58
2022-11-16T02:08:40.604Z,24.57
2022-11-16T02:08:50.617Z,24.57
2022-11-16T02:09:00.613Z,24.57
2022-11-16T02:09:10.732Z,24.57
2022-11-16T02:09:20.880Z,24.57